Time;durP1;ratioP1;P1;durP2;ratioP2;P2;SDS_P1;SDS_P2;PMS_P1;PMS_P2;Temp;Humidity;BMP_temperature;BMP_pressure;BME280_temperature;BME280_humidity;BME280_pressure;Samples;Min_cycle;Max_cycle;Signal;HPM_P1;HPM_P2
2021/01/25 00:04:06;;;;;;;1999.90;999.90;;;;;;;5.13;73.61;99454.34;15735287;28;20493;-58
2021/01/25 00:11:38;;;;;;;1999.90;999.90;;;;;;;4.90;73.95;99450.97;15726907;28;20152;-54
2021/01/25 00:19:10;;;;;;;1999.90;999.90;;;;;;;4.79;74.47;99450.44;15732364;28;20394;-54
2021/01/25 00:26:42;;;;;;;1999.90;999.90;;;;;;;4.91;74.79;99449.81;15733261;28;20397;-52
2021/01/25 00:34:14;;;;;;;1999.90;999.90;;;;;;;4.81;73.76;99452.91;15734347;28;20090;-52
2021/01/25 00:41:47;;;;;;;1999.90;999.90;;;;;;;4.72;75.06;99457.63;15745117;28;20219;-54
2021/01/25 00:49:18;;;;;;;1999.90;999.90;;;;;;;4.64;75.16;99462.81;15744999;28;20087;-55
2021/01/25 00:56:51;;;;;;;1999.90;999.90;;;;;;;4.54;75.48;99465.06;15743428;28;20064;-54
2021/01/25 01:04:23;;;;;;;1999.90;999.90;;;;;;;4.73;74.74;99462.81;15726097;28;20063;-53
2021/01/25 01:11:56;;;;;;;1999.90;999.90;;;;;;;4.72;75.38;99472.25;15734319;28;20068;-55
2021/01/25 01:19:28;;;;;;;1999.90;999.90;;;;;;;4.59;74.60;99476.81;15743079;28;20136;-57
2021/01/25 01:27:00;;;;;;;1999.90;999.90;;;;;;;4.84;73.64;99471.59;15741990;28;20501;-55
2021/01/25 01:34:32;;;;;;;1999.90;999.90;;;;;;;4.41;74.40;99485.38;15740325;28;20039;-52
2021/01/25 01:42:05;;;;;;;1999.90;999.90;;;;;;;4.45;74.39;99480.81;15741293;28;20541;-53
2021/01/25 01:49:38;;;;;;;1999.90;999.90;;;;;;;4.64;73.90;99487.69;15722155;28;20045;-55
2021/01/25 01:57:11;;;;;;;1999.90;999.90;;;;;;;4.91;72.13;99491.28;15733722;28;20052;-51
2021/01/25 02:04:44;;;;;;;1999.90;999.90;;;;;;;4.77;72.50;99491.44;15739907;28;20075;-53
2021/01/25 02:12:19;;;;;;;1999.90;999.90;;;;;;;4.77;72.43;99488.66;15739405;28;20055;-53
2021/01/25 02:20:02;;;;;;;1999.90;999.90;;;;;;;4.74;72.63;99497.59;15739462;28;20118;-52
2021/01/25 02:27:37;;;;;;;1999.90;999.90;;;;;;;4.56;72.29;99502.28;15738159;28;20090;-53
2021/01/25 02:35:11;;;;;;;1999.90;999.90;;;;;;;4.23;72.79;99503.84;15738073;28;20582;-54
2021/01/25 02:42:45;;;;;;;1999.90;999.90;;;;;;;4.15;72.39;99510.13;15731234;28;20078;-53
2021/01/25 02:50:17;;;;;;;1999.90;999.90;;;;;;;4.33;72.04;99526.44;15718956;28;20051;-51
2021/01/25 02:57:50;;;;;;;1999.90;999.90;;;;;;;4.50;71.84;99516.59;15718991;28;20044;-57
2021/01/25 03:05:22;;;;;;;1999.90;999.90;;;;;;;4.41;72.21;99516.56;15736502;28;20086;-54
2021/01/25 03:13:00;;;;;;;1999.90;999.90;;;;;;;4.44;71.43;99515.09;15736844;28;20044;-51
2021/01/25 03:20:32;;;;;;;1999.90;999.90;;;;;;;4.50;71.20;99517.41;15736384;28;20102;-54
2021/01/25 03:28:05;;;;;;;1999.90;999.90;;;;;;;4.63;71.28;99527.50;15718154;28;20484;-57
2021/01/25 03:35:36;;;;;;;1999.90;999.90;;;;;;;4.71;71.61;99528.66;15734921;28;20041;-58
2021/01/25 03:43:09;;;;;;;1999.90;999.90;;;;;;;4.49;72.15;99539.84;15717694;28;20045;-53
2021/01/25 03:50:40;;;;;;;1999.90;999.90;;;;;;;4.63;72.50;99559.84;15735775;28;20041;-52
2021/01/25 03:58:13;;;;;;;1999.90;999.90;;;;;;;4.55;71.98;99553.16;15734166;28;20132;-52
2021/01/25 04:05:45;;;;;;;1999.90;999.90;;;;;;;4.44;72.15;99553.78;15735375;28;20523;-52
2021/01/25 04:13:19;;;;;;;1999.90;999.90;;;;;;;4.53;72.42;99549.09;15723051;28;20082;-57
2021/01/25 04:20:53;;;;;;;1999.90;999.90;;;;;;;4.60;72.03;99552.22;15757725;22;20048;-64
2021/01/25 04:28:25;;;;;;;1999.90;999.90;;;;;;;4.62;71.43;99558.22;15733004;28;20501;-66
2021/01/25 04:35:57;;;;;;;1999.90;999.90;;;;;;;4.63;71.92;99557.91;15693924;28;20124;-65
2021/01/25 04:43:29;;;;;;;1999.90;999.90;;;;;;;4.48;71.68;99563.88;15712864;28;20064;-59
2021/01/25 04:51:01;;;;;;;1999.90;999.90;;;;;;;4.01;72.54;99574.56;15726938;28;20131;-63
2021/01/25 04:58:34;;;;;;;1999.90;999.90;;;;;;;4.31;71.93;99577.63;15680669;28;20052;-64
2021/01/25 05:06:06;;;;;;;1999.90;999.90;;;;;;;4.29;72.49;99585.41;15689712;28;20041;-64
2021/01/25 05:13:39;;;;;;;1999.90;999.90;;;;;;;4.46;72.33;99590.16;15708545;28;20076;-63
2021/01/25 05:21:11;;;;;;;1999.90;999.90;;;;;;;4.33;72.25;99586.41;15728022;28;20052;-63
2021/01/25 05:28:44;;;;;;;1999.90;999.90;;;;;;;4.21;72.41;99584.25;15718112;28;20073;-63
2021/01/25 05:36:19;;;;;;;1999.90;999.90;;;;;;;4.29;73.12;99593.69;15728339;28;20051;-65
2021/01/25 05:43:51;;;;;;;1999.90;999.90;;;;;;;4.35;72.30;99593.22;15714712;28;20070;-65
2021/01/25 05:51:23;;;;;;;1999.90;999.90;;;;;;;4.24;72.38;99582.78;15686859;28;20135;-65
2021/01/25 05:58:56;;;;;;;1999.90;999.90;;;;;;;4.07;73.35;99574.44;15744790;28;20118;-66
2021/01/25 06:06:33;;;;;;;1999.90;999.90;;;;;;;3.89;74.20;99588.13;15679712;28;20524;-63
2021/01/25 06:14:11;;;;;;;1999.90;999.90;;;;;;;3.88;74.05;99596.72;15671238;28;20590;-63
2021/01/25 06:21:48;;;;;;;1999.90;999.90;;;;;;;3.74;74.24;99599.56;15705344;28;20041;-66
2021/01/25 06:29:21;;;;;;;1999.90;999.90;;;;;;;4.09;73.52;99603.34;15712642;28;20052;-65
2021/01/25 06:36:53;;;;;;;1999.90;999.90;;;;;;;3.92;73.17;99615.09;15688358;28;20087;-64
2021/01/25 06:44:28;;;;;;;1999.90;999.90;;;;;;;4.14;73.44;99621.72;15698775;28;20136;-65
2021/01/25 06:52:03;;;;;;;1999.90;999.90;;;;;;;4.13;73.24;99631.13;15744271;28;20052;-65
2021/01/25 06:59:38;;;;;;;1999.90;999.90;;;;;;;4.19;72.53;99643.69;15743239;28;20577;-64
2021/01/25 07:07:21;;;;;;;1999.90;999.90;;;;;;;4.19;73.24;99640.91;15743907;28;20051;-64
2021/01/25 07:14:56;;;;;;;1999.90;999.90;;;;;;;4.13;73.22;99665.06;15743133;28;20040;-66
2021/01/25 07:22:29;;;;;;;1999.90;999.90;;;;;;;4.20;72.62;99665.44;15742844;28;20501;-66
2021/01/25 07:30:03;;;;;;;1999.90;999.90;;;;;;;3.81;74.35;99665.34;15724722;28;20049;-65
2021/01/25 07:37:37;;;;;;;1999.90;999.90;;;;;;;3.92;73.91;99677.75;15708175;28;20055;-64
2021/01/25 07:45:14;;;;;;;1999.90;999.90;;;;;;;4.18;72.97;99680.72;15744797;28;20397;-66
2021/01/25 07:52:56;;;;;;;1999.90;999.90;;;;;;;4.02;73.36;99686.59;15754926;28;20032;-64
2021/01/25 08:00:30;;;;;;;1999.90;999.90;;;;;;;3.89;73.82;99681.97;15754283;28;20508;-64
2021/01/25 08:08:05;;;;;;;1999.90;999.90;;;;;;;4.16;72.84;99693.97;15753538;28;20508;-63
2021/01/25 08:15:39;;;;;;;1999.90;999.90;;;;;;;4.19;72.97;99702.47;15735941;28;20317;-64
2021/01/25 08:23:15;;;;;;;1999.90;999.90;;;;;;;4.00;73.27;99710.94;15734908;28;20048;-66
2021/01/25 08:30:49;;;;;;;1999.90;999.90;;;;;;;3.93;73.74;99713.31;15734529;28;20048;-64
2021/01/25 08:38:27;;;;;;;1999.90;999.90;;;;;;;4.25;73.02;99715.00;15733619;28;20048;-66
2021/01/25 08:46:10;;;;;;;1999.90;999.90;;;;;;;4.57;72.20;99713.88;15750944;28;20040;-64
2021/01/25 08:53:45;;;;;;;1999.90;999.90;;;;;;;4.32;72.68;99715.38;15751836;28;20093;-65
2021/01/25 09:01:22;;;;;;;1999.90;999.90;;;;;;;4.67;71.64;99729.38;15732478;28;20053;-63
2021/01/25 09:08:55;;;;;;;1999.90;999.90;;;;;;;4.79;70.73;99743.41;15751011;28;20101;-64
2021/01/25 09:16:28;;;;;;;1999.90;999.90;;;;;;;5.33;70.21;99749.66;15750030;28;20401;-65
2021/01/25 09:24:00;;;;;;;1999.90;999.90;;;;;;;5.38;69.06;99765.28;15748809;28;20067;-63
2021/01/25 09:31:35;;;;;;;1999.90;999.90;;;;;;;5.30;69.08;99777.94;15748110;28;20109;-64
2021/01/25 09:39:07;;;;;;;1999.90;999.90;;;;;;;5.61;69.25;99785.34;15729701;28;20102;-62
2021/01/25 09:46:41;;;;;;;1999.90;999.90;;;;;;;5.56;69.56;99783.56;15747225;28;20040;-64
2021/01/25 09:54:13;;;;;;;1999.90;999.90;;;;;;;5.83;68.61;99803.78;15748926;28;20044;-64
2021/01/25 10:01:46;;;;;;;1999.90;999.90;;;;;;;5.58;69.86;99797.88;15713499;28;20450;-64
2021/01/25 10:09:18;;;;;;;1999.90;999.90;;;;;;;5.12;68.77;99812.22;15746080;28;20125;-63
2021/01/25 10:16:50;;;;;;;1999.90;999.90;;;;;;;4.86;69.35;99809.31;15746751;28;20068;-62
2021/01/25 10:24:22;;;;;;;1999.90;999.90;;;;;;;4.91;69.78;99820.25;15747094;28;20040;-60
2021/01/25 10:31:54;;;;;;;1999.90;999.90;;;;;;;5.78;67.44;99824.13;15745601;28;20299;-62
2021/01/25 10:39:33;;;;;;;1999.90;999.90;;;;;;;5.57;67.73;99820.34;15923669;27;20358;-62
2021/01/25 10:47:04;;;;;;;1999.90;999.90;;;;;;;5.53;67.65;99825.72;15922190;28;20442;-63
2021/01/25 10:54:37;;;;;;;1999.90;999.90;;;;;;;5.13;68.48;99847.03;15923023;27;20046;-64
2021/01/25 11:02:09;;;;;;;1999.90;999.90;;;;;;;5.28;66.62;99840.25;15921597;28;20119;-63
2021/01/25 11:09:42;;;;;;;1999.90;999.90;;;;;;;5.51;66.91;99831.53;15921591;27;20510;-61
2021/01/25 11:17:15;;;;;;;1999.90;999.90;;;;;;;5.39;66.32;99839.63;15903811;28;20096;-63
2021/01/25 11:24:48;;;;;;;1999.90;999.90;;;;;;;5.90;65.19;99842.88;15920825;27;20051;-62
2021/01/25 11:32:19;;;;;;;1999.90;999.90;;;;;;;5.37;65.36;99849.41;15919238;27;20047;-62
2021/01/25 11:39:51;;;;;;;1999.90;999.90;;;;;;;5.45;64.13;99849.44;15918816;28;20055;-62
2021/01/25 11:47:23;;;;;;;1999.90;999.90;;;;;;;5.70;63.66;99866.44;15897012;27;20104;-63
2021/01/25 11:54:56;;;;;;;1999.90;999.90;;;;;;;5.28;66.47;99870.69;15876159;28;20594;-63
2021/01/25 12:02:27;;;;;;;1999.90;999.90;;;;;;;5.76;66.11;99871.53;15875441;28;20135;-63
2021/01/25 12:10:00;;;;;;;1999.90;999.90;;;;;;;5.83;65.33;99878.53;15877482;27;20131;-63
2021/01/25 12:17:31;;;;;;;1999.90;999.90;;;;;;;6.16;63.76;99878.97;15875507;28;20092;-63
2021/01/25 12:25:05;;;;;;;1999.90;999.90;;;;;;;5.98;64.25;99876.16;15876070;28;20047;-63
2021/01/25 12:32:36;;;;;;;1999.90;999.90;;;;;;;6.71;62.46;99878.34;15873895;28;20036;-62
2021/01/25 12:40:10;;;;;;;1999.90;999.90;;;;;;;6.34;62.51;99872.28;15878165;28;20511;-63
2021/01/25 12:47:44;;;;;;;1999.90;999.90;;;;;;;10.66;49.64;99877.22;15873869;28;20063;-63
2021/01/25 12:55:18;;;;;;;1999.90;999.90;;;;;;;10.43;51.20;99878.91;15873247;28;20082;-63
2021/01/25 13:02:49;;;;;;;1999.90;999.90;;;;;;;10.00;52.61;99887.88;15872336;28;20040;-63
2021/01/25 13:10:22;;;;;;;1999.90;999.90;;;;;;;9.02;54.10;99887.72;15872317;28;20069;-64
2021/01/25 13:17:53;;;;;;;1999.90;999.90;;;;;;;8.26;54.32;99896.34;15871651;28;20039;-64
2021/01/25 13:25:26;;;;;;;1999.90;999.90;;;;;;;8.39;55.84;99890.56;15871007;28;20043;-61
2021/01/25 13:32:57;;;;;;;1999.90;999.90;;;;;;;8.31;55.84;99898.94;15870373;28;20051;-63
2021/01/25 13:40:30;;;;;;;1999.90;999.90;;;;;;;10.32;51.36;99900.91;15869344;28;20047;-62
2021/01/25 13:48:05;;;;;;;1999.90;999.90;;;;;;;9.51;53.04;99905.38;15869844;28;20450;-63
2021/01/25 13:55:39;;;;;;;1999.90;999.90;;;;;;;8.08;57.65;99921.47;15868259;28;20043;-63
2021/01/25 14:03:10;;;;;;;1999.90;999.90;;;;;;;7.29;59.38;99921.28;15869588;28;20043;-63
2021/01/25 14:10:45;;;;;;;1999.90;999.90;;;;;;;7.08;60.64;99932.28;15869290;28;20044;-62
2021/01/25 14:18:16;;;;;;;1999.90;999.90;;;;;;;6.78;61.80;99937.69;15867314;28;20040;-64
2021/01/25 14:25:49;;;;;;;1999.90;999.90;;;;;;;6.96;60.90;99946.81;15868531;28;20493;-64
2021/01/25 14:33:21;;;;;;;1999.90;999.90;;;;;;;6.84;61.60;99950.25;15866466;28;20073;-64
2021/01/25 14:40:57;;;;;;;1999.90;999.90;;;;;;;6.98;61.47;99960.34;15866503;28;20044;-64
2021/01/25 14:48:28;;;;;;;1999.90;999.90;;;;;;;6.55;63.10;99963.91;15860892;28;20044;-64
2021/01/25 14:56:01;;;;;;;1999.90;999.90;;;;;;;6.30;63.96;99974.66;15805492;28;20429;-63
2021/01/25 15:03:33;;;;;;;1999.90;999.90;;;;;;;6.24;64.02;99992.53;15834940;28;20121;-63
2021/01/25 15:11:05;;;;;;;1999.90;999.90;;;;;;;6.10;63.88;100002.94;15846709;28;20569;-63
2021/01/25 15:18:37;;;;;;;1999.90;999.90;;;;;;;6.08;65.13;100021.84;15843817;28;20501;-64
2021/01/25 15:26:10;;;;;;;1999.90;999.90;;;;;;;5.89;65.25;100021.22;15842460;28;20036;-64
2021/01/25 15:33:42;;;;;;;1999.90;999.90;;;;;;;5.67;65.85;100024.88;15871722;28;20046;-64
2021/01/25 15:41:15;;;;;;;1999.90;999.90;;;;;;;5.62;65.90;100034.09;15832314;28;20355;-64
2021/01/25 15:48:48;;;;;;;1999.90;999.90;;;;;;;5.70;65.90;100044.41;15853731;28;20040;-64
2021/01/25 15:56:21;;;;;;;1999.90;999.90;;;;;;;5.58;66.06;100057.19;15851673;28;20480;-62
2021/01/25 16:03:52;;;;;;;1999.90;999.90;;;;;;;5.33;67.30;100069.72;15871983;28;20047;-62
2021/01/25 16:11:28;;;;;;;1999.90;999.90;;;;;;;5.45;65.95;100070.78;15829308;28;20472;-65
2021/01/25 16:19:01;;;;;;;1999.90;999.90;;;;;;;5.15;66.23;100077.06;15839525;28;20084;-61
2021/01/25 16:26:34;;;;;;;1999.90;999.90;;;;;;;4.96;67.08;100076.41;15846351;28;20048;-62
2021/01/25 16:34:06;;;;;;;1999.90;999.90;;;;;;;5.19;66.16;100086.34;15848346;28;20069;-63
2021/01/25 16:41:38;;;;;;;1999.90;999.90;;;;;;;5.22;66.07;100094.88;15849231;28;20043;-63
2021/01/25 16:49:10;;;;;;;1999.90;999.90;;;;;;;5.51;65.43;100104.69;15810037;28;20207;-67
2021/01/25 16:56:43;;;;;;;1999.90;999.90;;;;;;;5.46;65.36;100107.59;15833928;28;20043;-63
2021/01/25 17:04:15;;;;;;;1999.90;999.90;;;;;;;5.26;65.93;100119.94;15819807;28;20048;-63
2021/01/25 17:11:47;;;;;;;1999.90;999.90;;;;;;;5.04;66.60;100129.03;15829556;28;20269;-63
2021/01/25 17:19:19;;;;;;;1999.90;999.90;;;;;;;5.13;66.51;100134.66;15852938;28;20067;-65
2021/01/25 17:26:52;;;;;;;1999.90;999.90;;;;;;;5.03;66.39;100143.97;15827305;28;20516;-64
2021/01/25 17:34:23;;;;;;;1999.90;999.90;;;;;;;5.03;66.60;100155.03;15739512;22;20045;-77
2021/01/25 17:41:56;;;;;;;1999.90;999.90;;;;;;;4.96;67.42;100153.81;15586461;28;20042;-76
2021/01/25 17:49:28;;;;;;;1999.90;999.90;;;;;;;5.02;67.07;100166.41;15611059;23;20108;-63
2021/01/25 17:57:00;;;;;;;1999.90;999.90;;;;;;;5.01;67.32;100173.91;15580886;28;20140;-63
2021/01/25 18:04:32;;;;;;;1999.90;999.90;;;;;;;4.96;68.18;100175.94;15602615;28;20061;-62
2021/01/25 18:12:06;;;;;;;1999.90;999.90;;;;;;;4.89;67.63;100177.16;15620717;28;20242;-62
2021/01/25 18:19:38;;;;;;;1999.90;999.90;;;;;;;4.75;67.68;100186.59;15619720;28;20049;-62
2021/01/25 18:27:11;;;;;;;1999.90;999.90;;;;;;;4.83;67.92;100183.94;15600583;28;20124;-64
2021/01/25 18:34:43;;;;;;;1999.90;999.90;;;;;;;4.82;67.76;100195.31;15590249;28;20041;-63
2021/01/25 18:42:19;;;;;;;1999.90;999.90;;;;;;;4.86;67.81;100199.06;15619201;28;20320;-63
2021/01/25 18:49:51;;;;;;;1999.90;999.90;;;;;;;4.70;68.55;100200.53;15601752;28;20517;-65
2021/01/25 18:57:23;;;;;;;1999.90;999.90;;;;;;;4.78;68.31;100205.31;15607672;28;20448;-62
2021/01/25 19:04:55;;;;;;;1999.90;999.90;;;;;;;4.75;68.23;100219.75;15632260;28;20048;-63
2021/01/25 19:12:28;;;;;;;1999.90;999.90;;;;;;;4.98;67.77;100227.03;15612973;28;20044;-61
2021/01/25 19:19:59;;;;;;;1999.90;999.90;;;;;;;4.93;68.43;100230.72;15609354;28;20388;-62
2021/01/25 19:27:32;;;;;;;1999.90;999.90;;;;;;;4.87;68.23;100244.94;15609845;28;20192;-60
2021/01/25 19:35:06;;;;;;;1999.90;999.90;;;;;;;4.84;68.02;100251.91;15627065;28;20088;-60
2021/01/25 19:42:40;;;;;;;1999.90;999.90;;;;;;;4.98;67.91;100254.69;15609836;28;20411;-62
2021/01/25 19:50:14;;;;;;;1999.90;999.90;;;;;;;4.96;67.25;100265.22;15591397;28;20410;-63
2021/01/25 19:57:48;;;;;;;1999.90;999.90;;;;;;;5.17;67.21;100272.00;15625949;28;20071;-61
2021/01/25 20:05:22;;;;;;;1999.90;999.90;;;;;;;5.17;66.86;100279.47;15625282;28;20053;-61
2021/01/25 20:12:56;;;;;;;1999.90;999.90;;;;;;;5.03;67.42;100282.25;15607405;28;20088;-64
2021/01/25 20:20:28;;;;;;;1999.90;999.90;;;;;;;5.08;67.27;100290.44;15625646;28;20103;-62
2021/01/25 20:28:03;;;;;;;1999.90;999.90;;;;;;;5.11;67.66;100298.13;15627919;28;20563;-63
2021/01/25 20:35:37;;;;;;;1999.90;999.90;;;;;;;5.09;67.22;100305.06;15621050;28;20053;-61
2021/01/25 20:43:10;;;;;;;1999.90;999.90;;;;;;;5.10;67.07;100312.25;15601275;28;20049;-63
2021/01/25 20:50:42;;;;;;;1999.90;999.90;;;;;;;5.06;68.02;100336.94;15597789;28;20083;-63
2021/01/25 20:58:15;;;;;;;1999.90;999.90;;;;;;;4.57;69.19;100332.81;15605827;28;20518;-62
2021/01/25 21:05:47;;;;;;;1999.90;999.90;;;;;;;4.84;69.09;100342.31;15595670;28;20533;-61
2021/01/25 21:13:21;;;;;;;1999.90;999.90;;;;;;;4.88;68.56;100348.88;15614778;28;20505;-61
2021/01/25 21:20:54;;;;;;;1999.90;999.90;;;;;;;4.74;68.39;100353.56;15605350;28;20410;-61
2021/01/25 21:28:27;;;;;;;1999.90;999.90;;;;;;;4.73;68.29;100343.63;15633089;28;20200;-62
2021/01/25 21:35:59;;;;;;;1999.90;999.90;;;;;;;4.92;68.33;100345.22;15621355;28;20033;-61
2021/01/25 21:43:32;;;;;;;1999.90;999.90;;;;;;;4.82;68.29;100350.09;15621453;28;20049;-62
2021/01/25 21:51:04;;;;;;;1999.90;999.90;;;;;;;4.59;68.17;100360.19;15600290;28;20068;-61
2021/01/25 21:58:36;;;;;;;1999.90;999.90;;;;;;;4.82;68.11;100358.41;15581934;28;20041;-61
2021/01/25 22:06:08;;;;;;;1999.90;999.90;;;;;;;4.68;68.43;100360.28;15599805;28;20107;-61
2021/01/25 22:13:40;;;;;;;1999.90;999.90;;;;;;;4.62;68.72;100362.34;15600059;28;20045;-60
2021/01/25 22:21:12;;;;;;;1999.90;999.90;;;;;;;4.62;69.15;100365.09;15617372;28;20069;-62
2021/01/25 22:28:45;;;;;;;1999.90;999.90;;;;;;;4.41;69.55;100372.06;15617254;28;20414;-61
2021/01/25 22:36:16;;;;;;;1999.90;999.90;;;;;;;4.42;69.40;100366.25;15616855;28;20103;-61
2021/01/25 22:43:49;;;;;;;1999.90;999.90;;;;;;;4.70;68.18;100369.13;15617641;28;20049;-62
2021/01/25 22:51:21;;;;;;;1999.90;999.90;;;;;;;4.58;69.09;100378.69;15616251;28;20095;-62
2021/01/25 22:58:53;;;;;;;1999.90;999.90;;;;;;;4.56;69.01;100391.16;15599316;28;20053;-61
2021/01/25 23:06:25;;;;;;;1999.90;999.90;;;;;;;4.68;68.65;100377.69;15598668;28;20111;-62
2021/01/25 23:13:57;;;;;;;1999.90;999.90;;;;;;;4.81;67.91;100376.13;15598830;28;20401;-61
2021/01/25 23:21:29;;;;;;;1999.90;999.90;;;;;;;4.78;67.41;100382.22;15598976;28;20056;-61
2021/01/25 23:29:02;;;;;;;1999.90;999.90;;;;;;;4.55;68.49;100381.22;15615500;28;20041;-62
2021/01/25 23:36:33;;;;;;;1999.90;999.90;;;;;;;4.52;68.86;100379.91;15597526;28;20498;-61
2021/01/25 23:44:09;;;;;;;1999.90;999.90;;;;;;;4.20;69.04;100385.38;15622314;28;20042;-62
2021/01/25 23:51:41;;;;;;;1999.90;999.90;;;;;;;4.41;69.06;100391.41;15608406;28;20053;-62
2021/01/25 23:59:14;;;;;;;1999.90;999.90;;;;;;;4.48;68.79;100394.59;15635851;23;20158;-55
